sensor_id;sensor_type;location;lat;lon;timestamp;P1;durP1;ratioP1;P2;durP2;ratioP2
15271;SDS011;7737;51.578;7.268;2023-07-13T00:02:15;6.65;;;2.58;;
15271;SDS011;7737;51.578;7.268;2023-07-13T00:04:42;5.45;;;2.28;;
15271;SDS011;7737;51.578;7.268;2023-07-13T00:07:08;4.97;;;1.92;;
15271;SDS011;7737;51.578;7.268;2023-07-13T00:09:35;4.07;;;1.73;;
15271;SDS011;7737;51.578;7.268;2023-07-13T00:12:01;4.47;;;2.00;;
15271;SDS011;7737;51.578;7.268;2023-07-13T00:14:29;4.80;;;2.10;;
15271;SDS011;7737;51.578;7.268;2023-07-13T00:16:55;4.15;;;2.00;;
15271;SDS011;7737;51.578;7.268;2023-07-13T00:19:23;5.15;;;1.70;;
15271;SDS011;7737;51.578;7.268;2023-07-13T00:21:49;4.47;;;2.00;;
15271;SDS011;7737;51.578;7.268;2023-07-13T00:24:17;4.60;;;1.90;;
15271;SDS011;7737;51.578;7.268;2023-07-13T00:26:48;4.85;;;1.80;;
15271;SDS011;7737;51.578;7.268;2023-07-13T00:29:14;3.95;;;1.77;;
15271;SDS011;7737;51.578;7.268;2023-07-13T00:31:41;4.60;;;1.67;;
15271;SDS011;7737;51.578;7.268;2023-07-13T00:34:08;6.28;;;2.03;;
15271;SDS011;7737;51.578;7.268;2023-07-13T00:36:36;5.97;;;1.90;;
15271;SDS011;7737;51.578;7.268;2023-07-13T00:39:03;4.70;;;1.67;;
15271;SDS011;7737;51.578;7.268;2023-07-13T00:41:30;5.10;;;2.13;;
15271;SDS011;7737;51.578;7.268;2023-07-13T00:43:57;6.10;;;2.13;;
15271;SDS011;7737;51.578;7.268;2023-07-13T00:46:24;4.63;;;1.90;;
15271;SDS011;7737;51.578;7.268;2023-07-13T00:48:53;6.40;;;2.10;;
15271;SDS011;7737;51.578;7.268;2023-07-13T00:51:23;4.43;;;1.80;;
15271;SDS011;7737;51.578;7.268;2023-07-13T00:53:54;4.45;;;1.67;;
15271;SDS011;7737;51.578;7.268;2023-07-13T00:56:24;6.45;;;2.13;;
15271;SDS011;7737;51.578;7.268;2023-07-13T00:58:51;5.05;;;2.05;;
15271;SDS011;7737;51.578;7.268;2023-07-13T01:01:19;4.57;;;1.88;;
15271;SDS011;7737;51.578;7.268;2023-07-13T01:03:46;5.97;;;2.03;;
15271;SDS011;7737;51.578;7.268;2023-07-13T01:06:12;4.35;;;1.85;;
15271;SDS011;7737;51.578;7.268;2023-07-13T01:08:39;5.28;;;1.90;;
15271;SDS011;7737;51.578;7.268;2023-07-13T01:11:07;4.00;;;1.80;;
15271;SDS011;7737;51.578;7.268;2023-07-13T01:13:34;7.53;;;2.30;;
15271;SDS011;7737;51.578;7.268;2023-07-13T01:16:02;4.80;;;2.10;;
15271;SDS011;7737;51.578;7.268;2023-07-13T01:18:30;5.30;;;2.17;;
15271;SDS011;7737;51.578;7.268;2023-07-13T01:20:59;4.05;;;1.88;;
15271;SDS011;7737;51.578;7.268;2023-07-13T01:23:27;4.97;;;1.88;;
15271;SDS011;7737;51.578;7.268;2023-07-13T01:25:56;6.00;;;1.88;;
15271;SDS011;7737;51.578;7.268;2023-07-13T01:28:23;6.55;;;1.70;;
15271;SDS011;7737;51.578;7.268;2023-07-13T01:30:52;4.05;;;1.50;;
15271;SDS011;7737;51.578;7.268;2023-07-13T01:33:19;5.43;;;1.83;;
15271;SDS011;7737;51.578;7.268;2023-07-13T01:35:45;5.75;;;2.08;;
15271;SDS011;7737;51.578;7.268;2023-07-13T01:38:15;6.95;;;1.65;;
15271;SDS011;7737;51.578;7.268;2023-07-13T01:40:43;3.88;;;1.85;;
15271;SDS011;7737;51.578;7.268;2023-07-13T01:43:10;6.22;;;1.60;;
15271;SDS011;7737;51.578;7.268;2023-07-13T01:45:38;3.80;;;1.58;;
15271;SDS011;7737;51.578;7.268;2023-07-13T01:48:04;4.75;;;1.45;;
15271;SDS011;7737;51.578;7.268;2023-07-13T01:50:32;3.78;;;1.50;;
15271;SDS011;7737;51.578;7.268;2023-07-13T01:52:59;4.93;;;1.90;;
15271;SDS011;7737;51.578;7.268;2023-07-13T01:55:28;4.10;;;1.40;;
15271;SDS011;7737;51.578;7.268;2023-07-13T01:57:55;4.03;;;1.40;;
15271;SDS011;7737;51.578;7.268;2023-07-13T02:00:22;3.65;;;1.90;;
15271;SDS011;7737;51.578;7.268;2023-07-13T02:02:49;4.28;;;1.60;;
15271;SDS011;7737;51.578;7.268;2023-07-13T02:05:16;3.67;;;1.60;;
15271;SDS011;7737;51.578;7.268;2023-07-13T02:07:43;4.78;;;1.90;;
15271;SDS011;7737;51.578;7.268;2023-07-13T02:10:10;3.55;;;1.73;;
15271;SDS011;7737;51.578;7.268;2023-07-13T02:12:38;5.20;;;1.60;;
15271;SDS011;7737;51.578;7.268;2023-07-13T02:15:05;7.57;;;2.03;;
15271;SDS011;7737;51.578;7.268;2023-07-13T02:17:33;4.78;;;1.83;;
15271;SDS011;7737;51.578;7.268;2023-07-13T02:20:00;5.38;;;1.67;;
15271;SDS011;7737;51.578;7.268;2023-07-13T02:22:27;3.75;;;1.63;;
15271;SDS011;7737;51.578;7.268;2023-07-13T02:24:54;5.55;;;1.60;;
15271;SDS011;7737;51.578;7.268;2023-07-13T02:27:20;6.00;;;1.52;;
15271;SDS011;7737;51.578;7.268;2023-07-13T02:29:48;3.10;;;1.33;;
15271;SDS011;7737;51.578;7.268;2023-07-13T02:32:16;4.03;;;1.60;;
15271;SDS011;7737;51.578;7.268;2023-07-13T02:34:42;3.10;;;1.30;;
15271;SDS011;7737;51.578;7.268;2023-07-13T02:37:09;4.97;;;1.70;;
15271;SDS011;7737;51.578;7.268;2023-07-13T02:39:35;5.35;;;1.50;;
15271;SDS011;7737;51.578;7.268;2023-07-13T02:42:02;3.47;;;1.50;;
15271;SDS011;7737;51.578;7.268;2023-07-13T02:44:29;4.28;;;1.38;;
15271;SDS011;7737;51.578;7.268;2023-07-13T02:46:56;3.83;;;1.60;;
15271;SDS011;7737;51.578;7.268;2023-07-13T02:49:23;3.40;;;1.40;;
15271;SDS011;7737;51.578;7.268;2023-07-13T02:51:50;3.67;;;1.75;;
15271;SDS011;7737;51.578;7.268;2023-07-13T02:54:17;4.13;;;1.40;;
15271;SDS011;7737;51.578;7.268;2023-07-13T02:56:43;4.32;;;1.50;;
15271;SDS011;7737;51.578;7.268;2023-07-13T02:59:10;4.25;;;1.25;;
15271;SDS011;7737;51.578;7.268;2023-07-13T03:01:37;3.85;;;1.45;;
15271;SDS011;7737;51.578;7.268;2023-07-13T03:04:05;2.90;;;1.40;;
15271;SDS011;7737;51.578;7.268;2023-07-13T03:06:32;4.53;;;1.65;;
15271;SDS011;7737;51.578;7.268;2023-07-13T03:08:58;3.42;;;1.60;;
15271;SDS011;7737;51.578;7.268;2023-07-13T03:11:26;5.38;;;1.52;;
15271;SDS011;7737;51.578;7.268;2023-07-13T03:13:53;4.70;;;1.63;;
15271;SDS011;7737;51.578;7.268;2023-07-13T03:16:19;2.88;;;1.35;;
15271;SDS011;7737;51.578;7.268;2023-07-13T03:18:46;4.45;;;1.77;;
15271;SDS011;7737;51.578;7.268;2023-07-13T03:21:15;4.50;;;1.50;;
15271;SDS011;7737;51.578;7.268;2023-07-13T03:23:41;4.97;;;1.70;;
15271;SDS011;7737;51.578;7.268;2023-07-13T03:26:09;3.42;;;1.52;;
15271;SDS011;7737;51.578;7.268;2023-07-13T03:28:38;3.88;;;1.70;;
15271;SDS011;7737;51.578;7.268;2023-07-13T03:31:05;7.10;;;1.40;;
15271;SDS011;7737;51.578;7.268;2023-07-13T03:33:34;3.42;;;1.58;;
15271;SDS011;7737;51.578;7.268;2023-07-13T03:36:01;4.28;;;1.42;;
15271;SDS011;7737;51.578;7.268;2023-07-13T03:38:29;5.45;;;1.67;;
15271;SDS011;7737;51.578;7.268;2023-07-13T03:40:56;4.72;;;1.75;;
15271;SDS011;7737;51.578;7.268;2023-07-13T03:43:22;4.35;;;1.50;;
15271;SDS011;7737;51.578;7.268;2023-07-13T03:45:49;5.10;;;1.42;;
15271;SDS011;7737;51.578;7.268;2023-07-13T03:48:15;4.57;;;1.60;;
15271;SDS011;7737;51.578;7.268;2023-07-13T03:50:42;3.80;;;1.50;;
15271;SDS011;7737;51.578;7.268;2023-07-13T03:53:08;3.88;;;1.50;;
15271;SDS011;7737;51.578;7.268;2023-07-13T03:55:36;2.55;;;1.48;;
15271;SDS011;7737;51.578;7.268;2023-07-13T04:00:52;7.20;;;1.90;;
15271;SDS011;7737;51.578;7.268;2023-07-13T04:03:18;3.08;;;1.35;;
15271;SDS011;7737;51.578;7.268;2023-07-13T04:05:45;4.57;;;1.50;;
15271;SDS011;7737;51.578;7.268;2023-07-13T04:08:12;4.55;;;1.52;;
15271;SDS011;7737;51.578;7.268;2023-07-13T04:10:40;4.65;;;1.90;;
15271;SDS011;7737;51.578;7.268;2023-07-13T04:13:06;3.63;;;1.50;;
15271;SDS011;7737;51.578;7.268;2023-07-13T04:15:33;5.00;;;1.85;;
15271;SDS011;7737;51.578;7.268;2023-07-13T04:17:59;5.18;;;1.75;;
15271;SDS011;7737;51.578;7.268;2023-07-13T04:20:26;5.35;;;2.08;;
15271;SDS011;7737;51.578;7.268;2023-07-13T04:22:52;5.05;;;1.75;;
15271;SDS011;7737;51.578;7.268;2023-07-13T04:25:19;3.35;;;1.17;;
15271;SDS011;7737;51.578;7.268;2023-07-13T04:27:48;6.45;;;1.70;;
15271;SDS011;7737;51.578;7.268;2023-07-13T04:30:14;4.85;;;1.48;;
15271;SDS011;7737;51.578;7.268;2023-07-13T04:32:41;3.75;;;1.58;;
15271;SDS011;7737;51.578;7.268;2023-07-13T04:35:08;6.22;;;1.70;;
15271;SDS011;7737;51.578;7.268;2023-07-13T04:37:34;4.40;;;1.27;;
15271;SDS011;7737;51.578;7.268;2023-07-13T04:40:01;5.10;;;1.80;;
15271;SDS011;7737;51.578;7.268;2023-07-13T04:42:29;3.15;;;1.42;;
15271;SDS011;7737;51.578;7.268;2023-07-13T04:44:57;5.47;;;2.05;;
15271;SDS011;7737;51.578;7.268;2023-07-13T04:47:23;7.60;;;2.00;;
15271;SDS011;7737;51.578;7.268;2023-07-13T04:49:50;5.47;;;1.70;;
15271;SDS011;7737;51.578;7.268;2023-07-13T04:52:16;3.47;;;1.60;;
15271;SDS011;7737;51.578;7.268;2023-07-13T04:54:43;5.13;;;1.67;;
15271;SDS011;7737;51.578;7.268;2023-07-13T04:57:10;6.28;;;1.98;;
15271;SDS011;7737;51.578;7.268;2023-07-13T04:59:36;4.85;;;1.70;;
15271;SDS011;7737;51.578;7.268;2023-07-13T05:02:04;7.38;;;1.80;;
15271;SDS011;7737;51.578;7.268;2023-07-13T05:04:31;5.03;;;1.65;;
15271;SDS011;7737;51.578;7.268;2023-07-13T05:06:57;5.45;;;2.08;;
15271;SDS011;7737;51.578;7.268;2023-07-13T05:09:24;6.25;;;1.88;;
15271;SDS011;7737;51.578;7.268;2023-07-13T05:11:51;5.57;;;1.77;;
15271;SDS011;7737;51.578;7.268;2023-07-13T05:14:18;6.18;;;2.20;;
15271;SDS011;7737;51.578;7.268;2023-07-13T05:16:44;5.00;;;1.73;;
15271;SDS011;7737;51.578;7.268;2023-07-13T05:19:12;5.50;;;1.88;;
15271;SDS011;7737;51.578;7.268;2023-07-13T05:21:39;6.63;;;2.10;;
15271;SDS011;7737;51.578;7.268;2023-07-13T05:24:06;4.82;;;1.90;;
15271;SDS011;7737;51.578;7.268;2023-07-13T05:26:32;6.72;;;2.20;;
15271;SDS011;7737;51.578;7.268;2023-07-13T05:28:59;4.35;;;1.70;;
15271;SDS011;7737;51.578;7.268;2023-07-13T05:31:25;6.20;;;1.70;;
15271;SDS011;7737;51.578;7.268;2023-07-13T05:33:53;6.00;;;1.92;;
15271;SDS011;7737;51.578;7.268;2023-07-13T05:36:21;8.68;;;2.50;;
15271;SDS011;7737;51.578;7.268;2023-07-13T05:38:47;6.25;;;1.92;;
15271;SDS011;7737;51.578;7.268;2023-07-13T05:41:13;5.22;;;2.10;;
15271;SDS011;7737;51.578;7.268;2023-07-13T05:43:40;7.68;;;2.10;;
15271;SDS011;7737;51.578;7.268;2023-07-13T05:46:06;7.25;;;2.20;;
15271;SDS011;7737;51.578;7.268;2023-07-13T05:48:33;5.63;;;2.10;;
15271;SDS011;7737;51.578;7.268;2023-07-13T05:51:00;7.90;;;1.98;;
15271;SDS011;7737;51.578;7.268;2023-07-13T05:53:28;6.88;;;2.30;;
15271;SDS011;7737;51.578;7.268;2023-07-13T05:55:55;7.05;;;2.20;;
15271;SDS011;7737;51.578;7.268;2023-07-13T05:58:22;6.70;;;2.20;;
15271;SDS011;7737;51.578;7.268;2023-07-13T06:00:57;7.93;;;2.45;;
15271;SDS011;7737;51.578;7.268;2023-07-13T06:03:25;6.72;;;2.65;;
15271;SDS011;7737;51.578;7.268;2023-07-13T06:05:52;6.93;;;2.33;;
15271;SDS011;7737;51.578;7.268;2023-07-13T06:08:18;6.72;;;2.30;;
15271;SDS011;7737;51.578;7.268;2023-07-13T06:10:46;7.25;;;2.42;;
15271;SDS011;7737;51.578;7.268;2023-07-13T06:13:12;10.60;;;2.90;;
15271;SDS011;7737;51.578;7.268;2023-07-13T06:15:39;6.40;;;2.50;;
15271;SDS011;7737;51.578;7.268;2023-07-13T06:18:05;7.20;;;2.50;;
15271;SDS011;7737;51.578;7.268;2023-07-13T06:20:33;5.68;;;2.40;;
15271;SDS011;7737;51.578;7.268;2023-07-13T06:23:00;7.90;;;2.85;;
15271;SDS011;7737;51.578;7.268;2023-07-13T06:25:27;10.18;;;2.90;;
15271;SDS011;7737;51.578;7.268;2023-07-13T06:27:55;9.52;;;2.50;;
15271;SDS011;7737;51.578;7.268;2023-07-13T06:30:21;7.28;;;2.92;;
15271;SDS011;7737;51.578;7.268;2023-07-13T06:32:48;11.23;;;3.30;;
15271;SDS011;7737;51.578;7.268;2023-07-13T06:35:15;7.70;;;2.78;;
15271;SDS011;7737;51.578;7.268;2023-07-13T06:37:41;8.70;;;3.10;;
15271;SDS011;7737;51.578;7.268;2023-07-13T06:40:08;7.80;;;3.08;;
15271;SDS011;7737;51.578;7.268;2023-07-13T06:42:35;7.25;;;3.03;;
15271;SDS011;7737;51.578;7.268;2023-07-13T06:45:05;5.85;;;2.70;;
15271;SDS011;7737;51.578;7.268;2023-07-13T06:47:32;9.02;;;3.55;;
15271;SDS011;7737;51.578;7.268;2023-07-13T06:49:58;7.55;;;2.67;;
15271;SDS011;7737;51.578;7.268;2023-07-13T06:52:26;10.60;;;3.08;;
15271;SDS011;7737;51.578;7.268;2023-07-13T06:54:52;6.97;;;2.97;;
15271;SDS011;7737;51.578;7.268;2023-07-13T06:57:19;6.40;;;2.88;;
15271;SDS011;7737;51.578;7.268;2023-07-13T06:59:45;11.20;;;3.35;;
15271;SDS011;7737;51.578;7.268;2023-07-13T07:02:13;10.05;;;3.65;;
15271;SDS011;7737;51.578;7.268;2023-07-13T07:04:40;8.98;;;3.15;;
15271;SDS011;7737;51.578;7.268;2023-07-13T07:07:06;10.20;;;3.15;;
15271;SDS011;7737;51.578;7.268;2023-07-13T07:09:33;8.73;;;3.50;;
15271;SDS011;7737;51.578;7.268;2023-07-13T07:11:59;8.70;;;3.80;;
15271;SDS011;7737;51.578;7.268;2023-07-13T07:14:25;9.90;;;3.05;;
15271;SDS011;7737;51.578;7.268;2023-07-13T07:16:52;8.55;;;3.60;;
15271;SDS011;7737;51.578;7.268;2023-07-13T07:19:20;6.18;;;2.83;;
15271;SDS011;7737;51.578;7.268;2023-07-13T07:21:46;11.32;;;3.72;;
15271;SDS011;7737;51.578;7.268;2023-07-13T07:24:13;9.18;;;3.42;;
15271;SDS011;7737;51.578;7.268;2023-07-13T07:26:40;8.65;;;3.28;;
15271;SDS011;7737;51.578;7.268;2023-07-13T07:29:07;9.70;;;3.72;;
15271;SDS011;7737;51.578;7.268;2023-07-13T07:31:33;8.05;;;3.55;;
15271;SDS011;7737;51.578;7.268;2023-07-13T07:34:02;7.80;;;3.35;;
15271;SDS011;7737;51.578;7.268;2023-07-13T07:36:30;7.53;;;3.00;;
15271;SDS011;7737;51.578;7.268;2023-07-13T07:38:56;7.57;;;2.92;;
15271;SDS011;7737;51.578;7.268;2023-07-13T07:41:23;8.70;;;3.35;;
15271;SDS011;7737;51.578;7.268;2023-07-13T07:43:49;8.20;;;3.30;;
15271;SDS011;7737;51.578;7.268;2023-07-13T07:46:16;6.40;;;3.03;;
15271;SDS011;7737;51.578;7.268;2023-07-13T07:48:42;6.32;;;3.13;;
15271;SDS011;7737;51.578;7.268;2023-07-13T07:51:09;7.70;;;3.63;;
15271;SDS011;7737;51.578;7.268;2023-07-13T07:53:36;8.20;;;4.25;;
15271;SDS011;7737;51.578;7.268;2023-07-13T07:56:03;7.70;;;3.63;;
15271;SDS011;7737;51.578;7.268;2023-07-13T07:58:30;7.43;;;3.53;;
15271;SDS011;7737;51.578;7.268;2023-07-13T08:01:01;8.68;;;3.75;;
15271;SDS011;7737;51.578;7.268;2023-07-13T08:03:29;9.27;;;3.90;;
15271;SDS011;7737;51.578;7.268;2023-07-13T08:05:55;7.18;;;3.80;;
15271;SDS011;7737;51.578;7.268;2023-07-13T08:08:22;8.27;;;4.32;;
15271;SDS011;7737;51.578;7.268;2023-07-13T08:10:50;8.40;;;3.72;;
15271;SDS011;7737;51.578;7.268;2023-07-13T08:13:17;9.23;;;3.58;;
15271;SDS011;7737;51.578;7.268;2023-07-13T08:15:43;9.30;;;4.35;;
15271;SDS011;7737;51.578;7.268;2023-07-13T08:18:10;7.18;;;3.72;;
15271;SDS011;7737;51.578;7.268;2023-07-13T08:20:37;6.80;;;3.75;;
15271;SDS011;7737;51.578;7.268;2023-07-13T08:23:04;7.45;;;4.10;;
15271;SDS011;7737;51.578;7.268;2023-07-13T08:25:31;9.27;;;4.00;;
15271;SDS011;7737;51.578;7.268;2023-07-13T08:27:59;8.05;;;3.72;;
15271;SDS011;7737;51.578;7.268;2023-07-13T08:30:25;8.38;;;3.58;;
15271;SDS011;7737;51.578;7.268;2023-07-13T08:32:52;7.35;;;3.58;;
15271;SDS011;7737;51.578;7.268;2023-07-13T08:35:19;7.60;;;3.78;;
15271;SDS011;7737;51.578;7.268;2023-07-13T08:37:46;8.02;;;3.25;;
15271;SDS011;7737;51.578;7.268;2023-07-13T08:40:12;7.82;;;3.50;;
15271;SDS011;7737;51.578;7.268;2023-07-13T08:42:42;6.40;;;3.40;;
15271;SDS011;7737;51.578;7.268;2023-07-13T08:45:17;7.63;;;3.55;;
15271;SDS011;7737;51.578;7.268;2023-07-13T08:47:48;5.85;;;3.20;;
15271;SDS011;7737;51.578;7.268;2023-07-13T08:50:20;9.13;;;3.70;;
15271;SDS011;7737;51.578;7.268;2023-07-13T08:52:51;5.63;;;3.50;;
15271;SDS011;7737;51.578;7.268;2023-07-13T08:55:20;6.57;;;3.67;;
15271;SDS011;7737;51.578;7.268;2023-07-13T08:57:48;10.52;;;3.78;;
15271;SDS011;7737;51.578;7.268;2023-07-13T09:00:24;7.63;;;3.50;;
15271;SDS011;7737;51.578;7.268;2023-07-13T09:02:56;10.70;;;3.90;;
15271;SDS011;7737;51.578;7.268;2023-07-13T09:05:26;7.93;;;3.50;;
15271;SDS011;7737;51.578;7.268;2023-07-13T09:08:06;8.13;;;2.90;;
15271;SDS011;7737;51.578;7.268;2023-07-13T09:10:43;8.27;;;3.25;;
15271;SDS011;7737;51.578;7.268;2023-07-13T09:13:16;5.75;;;2.85;;
15271;SDS011;7737;51.578;7.268;2023-07-13T09:15:54;7.15;;;2.42;;
15271;SDS011;7737;51.578;7.268;2023-07-13T09:18:23;8.40;;;2.42;;
15271;SDS011;7737;51.578;7.268;2023-07-13T09:20:55;4.68;;;2.03;;
15271;SDS011;7737;51.578;7.268;2023-07-13T09:23:26;6.50;;;2.42;;
15271;SDS011;7737;51.578;7.268;2023-07-13T09:26:00;5.72;;;2.42;;
15271;SDS011;7737;51.578;7.268;2023-07-13T09:28:33;6.32;;;2.20;;
15271;SDS011;7737;51.578;7.268;2023-07-13T09:31:06;4.13;;;2.10;;
15271;SDS011;7737;51.578;7.268;2023-07-13T09:33:38;4.82;;;2.28;;
15271;SDS011;7737;51.578;7.268;2023-07-13T09:36:14;4.93;;;2.30;;
15271;SDS011;7737;51.578;7.268;2023-07-13T09:38:44;5.57;;;2.30;;
15271;SDS011;7737;51.578;7.268;2023-07-13T09:41:15;5.82;;;2.20;;
15271;SDS011;7737;51.578;7.268;2023-07-13T09:46:36;7.47;;;2.15;;
15271;SDS011;7737;51.578;7.268;2023-07-13T09:49:03;6.25;;;2.40;;
15271;SDS011;7737;51.578;7.268;2023-07-13T09:51:29;4.75;;;2.65;;
15271;SDS011;7737;51.578;7.268;2023-07-13T09:53:56;5.43;;;1.90;;
15271;SDS011;7737;51.578;7.268;2023-07-13T09:56:23;6.15;;;2.63;;
15271;SDS011;7737;51.578;7.268;2023-07-13T09:58:53;5.82;;;2.60;;
15271;SDS011;7737;51.578;7.268;2023-07-13T10:01:30;5.97;;;2.42;;
15271;SDS011;7737;51.578;7.268;2023-07-13T10:03:59;5.32;;;2.50;;
15271;SDS011;7737;51.578;7.268;2023-07-13T10:06:26;5.28;;;2.83;;
15271;SDS011;7737;51.578;7.268;2023-07-13T10:08:55;6.03;;;2.65;;
15271;SDS011;7737;51.578;7.268;2023-07-13T10:11:24;6.32;;;2.80;;
15271;SDS011;7737;51.578;7.268;2023-07-13T10:13:54;5.10;;;2.40;;
15271;SDS011;7737;51.578;7.268;2023-07-13T10:16:22;4.40;;;2.63;;
15271;SDS011;7737;51.578;7.268;2023-07-13T10:18:53;6.38;;;2.72;;
15271;SDS011;7737;51.578;7.268;2023-07-13T10:21:23;6.82;;;2.60;;
15271;SDS011;7737;51.578;7.268;2023-07-13T10:23:55;6.80;;;2.60;;
15271;SDS011;7737;51.578;7.268;2023-07-13T10:26:26;5.78;;;2.88;;
15271;SDS011;7737;51.578;7.268;2023-07-13T10:29:00;4.72;;;2.33;;
15271;SDS011;7737;51.578;7.268;2023-07-13T10:31:32;6.90;;;2.63;;
15271;SDS011;7737;51.578;7.268;2023-07-13T10:34:03;7.30;;;2.65;;
15271;SDS011;7737;51.578;7.268;2023-07-13T10:36:33;6.05;;;2.40;;
15271;SDS011;7737;51.578;7.268;2023-07-13T10:39:05;5.93;;;2.53;;
15271;SDS011;7737;51.578;7.268;2023-07-13T10:41:34;5.00;;;2.42;;
15271;SDS011;7737;51.578;7.268;2023-07-13T10:44:05;2.88;;;2.03;;
15271;SDS011;7737;51.578;7.268;2023-07-13T10:46:43;5.53;;;2.38;;
15271;SDS011;7737;51.578;7.268;2023-07-13T10:49:10;6.28;;;2.53;;
15271;SDS011;7737;51.578;7.268;2023-07-13T10:51:40;7.10;;;2.70;;
15271;SDS011;7737;51.578;7.268;2023-07-13T10:54:17;4.85;;;2.70;;
15271;SDS011;7737;51.578;7.268;2023-07-13T10:56:48;4.93;;;2.60;;
15271;SDS011;7737;51.578;7.268;2023-07-13T10:59:17;6.65;;;2.50;;
15271;SDS011;7737;51.578;7.268;2023-07-13T11:01:54;4.88;;;2.53;;
15271;SDS011;7737;51.578;7.268;2023-07-13T11:04:23;5.93;;;2.45;;
15271;SDS011;7737;51.578;7.268;2023-07-13T11:06:58;8.38;;;2.65;;
15271;SDS011;7737;51.578;7.268;2023-07-13T11:09:38;8.20;;;2.88;;
15271;SDS011;7737;51.578;7.268;2023-07-13T11:12:10;8.77;;;2.70;;
15271;SDS011;7737;51.578;7.268;2023-07-13T11:15:04;6.70;;;2.70;;
15271;SDS011;7737;51.578;7.268;2023-07-13T11:17:37;6.88;;;2.80;;
15271;SDS011;7737;51.578;7.268;2023-07-13T11:23:20;5.35;;;2.55;;
15271;SDS011;7737;51.578;7.268;2023-07-13T11:25:53;6.50;;;2.60;;
15271;SDS011;7737;51.578;7.268;2023-07-13T11:28:24;8.48;;;2.90;;
15271;SDS011;7737;51.578;7.268;2023-07-13T11:31:01;4.03;;;2.25;;
15271;SDS011;7737;51.578;7.268;2023-07-13T11:36:29;3.65;;;2.00;;
15271;SDS011;7737;51.578;7.268;2023-07-13T11:39:00;5.68;;;2.10;;
15271;SDS011;7737;51.578;7.268;2023-07-13T11:41:30;5.35;;;2.33;;
15271;SDS011;7737;51.578;7.268;2023-07-13T11:44:07;6.53;;;2.28;;
15271;SDS011;7737;51.578;7.268;2023-07-13T11:46:39;4.68;;;2.00;;
15271;SDS011;7737;51.578;7.268;2023-07-13T11:49:13;4.10;;;1.85;;
15271;SDS011;7737;51.578;7.268;2023-07-13T11:51:42;4.78;;;2.05;;
15271;SDS011;7737;51.578;7.268;2023-07-13T11:54:14;7.22;;;2.00;;
15271;SDS011;7737;51.578;7.268;2023-07-13T11:56:49;5.28;;;2.05;;
15271;SDS011;7737;51.578;7.268;2023-07-13T11:59:16;5.60;;;2.10;;
15271;SDS011;7737;51.578;7.268;2023-07-13T12:01:44;4.05;;;1.77;;
15271;SDS011;7737;51.578;7.268;2023-07-13T12:04:22;4.53;;;1.58;;
15271;SDS011;7737;51.578;7.268;2023-07-13T12:06:54;5.07;;;1.90;;
15271;SDS011;7737;51.578;7.268;2023-07-13T12:09:26;4.97;;;2.03;;
15271;SDS011;7737;51.578;7.268;2023-07-13T12:11:53;4.88;;;1.80;;
15271;SDS011;7737;51.578;7.268;2023-07-13T12:14:20;6.03;;;2.10;;
15271;SDS011;7737;51.578;7.268;2023-07-13T12:16:49;4.32;;;1.77;;
15271;SDS011;7737;51.578;7.268;2023-07-13T12:19:17;3.75;;;1.98;;
15271;SDS011;7737;51.578;7.268;2023-07-13T12:21:45;4.80;;;1.92;;
15271;SDS011;7737;51.578;7.268;2023-07-13T12:24:17;4.20;;;1.80;;
15271;SDS011;7737;51.578;7.268;2023-07-13T12:26:51;4.20;;;1.85;;
15271;SDS011;7737;51.578;7.268;2023-07-13T12:29:19;5.35;;;1.83;;
15271;SDS011;7737;51.578;7.268;2023-07-13T12:31:47;4.15;;;1.90;;
15271;SDS011;7737;51.578;7.268;2023-07-13T12:34:17;4.82;;;1.77;;
15271;SDS011;7737;51.578;7.268;2023-07-13T12:36:46;3.22;;;1.70;;
15271;SDS011;7737;51.578;7.268;2023-07-13T12:39:15;5.60;;;1.95;;
15271;SDS011;7737;51.578;7.268;2023-07-13T12:41:44;2.30;;;1.70;;
15271;SDS011;7737;51.578;7.268;2023-07-13T12:44:14;3.72;;;1.67;;
15271;SDS011;7737;51.578;7.268;2023-07-13T12:46:52;4.13;;;1.60;;
15271;SDS011;7737;51.578;7.268;2023-07-13T12:49:23;4.22;;;1.70;;
15271;SDS011;7737;51.578;7.268;2023-07-13T12:51:55;3.75;;;1.90;;
15271;SDS011;7737;51.578;7.268;2023-07-13T12:54:24;4.43;;;1.95;;
15271;SDS011;7737;51.578;7.268;2023-07-13T12:56:51;4.20;;;1.83;;
15271;SDS011;7737;51.578;7.268;2023-07-13T12:59:22;4.05;;;1.70;;
15271;SDS011;7737;51.578;7.268;2023-07-13T13:01:51;4.25;;;1.70;;
15271;SDS011;7737;51.578;7.268;2023-07-13T13:04:18;2.17;;;1.42;;
15271;SDS011;7737;51.578;7.268;2023-07-13T13:06:46;3.63;;;1.50;;
15271;SDS011;7737;51.578;7.268;2023-07-13T13:09:13;3.35;;;1.88;;
15271;SDS011;7737;51.578;7.268;2023-07-13T13:11:41;4.53;;;1.70;;
15271;SDS011;7737;51.578;7.268;2023-07-13T13:14:08;4.57;;;1.98;;
15271;SDS011;7737;51.578;7.268;2023-07-13T13:16:37;3.33;;;1.80;;
15271;SDS011;7737;51.578;7.268;2023-07-13T13:19:13;4.35;;;1.92;;
15271;SDS011;7737;51.578;7.268;2023-07-13T13:21:42;6.60;;;1.90;;
15271;SDS011;7737;51.578;7.268;2023-07-13T13:24:12;3.80;;;1.83;;
15271;SDS011;7737;51.578;7.268;2023-07-13T13:26:40;2.53;;;1.75;;
15271;SDS011;7737;51.578;7.268;2023-07-13T13:29:11;3.13;;;1.70;;
15271;SDS011;7737;51.578;7.268;2023-07-13T13:31:42;3.95;;;2.03;;
15271;SDS011;7737;51.578;7.268;2023-07-13T13:34:10;5.82;;;2.20;;
15271;SDS011;7737;51.578;7.268;2023-07-13T13:36:39;4.55;;;2.40;;
15271;SDS011;7737;51.578;7.268;2023-07-13T13:39:10;5.15;;;2.47;;
15271;SDS011;7737;51.578;7.268;2023-07-13T13:41:45;3.47;;;2.38;;
15271;SDS011;7737;51.578;7.268;2023-07-13T13:44:12;2.33;;;2.10;;
15271;SDS011;7737;51.578;7.268;2023-07-13T13:46:40;3.50;;;2.33;;
15271;SDS011;7737;51.578;7.268;2023-07-13T13:49:10;4.65;;;2.42;;
15271;SDS011;7737;51.578;7.268;2023-07-13T13:51:41;3.08;;;2.40;;
15271;SDS011;7737;51.578;7.268;2023-07-13T13:54:09;5.18;;;2.88;;
15271;SDS011;7737;51.578;7.268;2023-07-13T13:56:38;3.53;;;2.78;;
15271;SDS011;7737;51.578;7.268;2023-07-13T13:59:04;6.03;;;2.80;;
15271;SDS011;7737;51.578;7.268;2023-07-13T14:01:31;3.67;;;2.35;;
15271;SDS011;7737;51.578;7.268;2023-07-13T14:03:58;3.63;;;2.70;;
15271;SDS011;7737;51.578;7.268;2023-07-13T14:06:26;4.07;;;2.80;;
15271;SDS011;7737;51.578;7.268;2023-07-13T14:08:53;3.83;;;2.80;;
15271;SDS011;7737;51.578;7.268;2023-07-13T14:11:20;4.80;;;2.83;;
15271;SDS011;7737;51.578;7.268;2023-07-13T14:13:48;5.10;;;2.60;;
15271;SDS011;7737;51.578;7.268;2023-07-13T14:16:18;5.97;;;3.15;;
15271;SDS011;7737;51.578;7.268;2023-07-13T14:18:46;4.97;;;2.92;;
15271;SDS011;7737;51.578;7.268;2023-07-13T14:21:14;3.88;;;2.42;;
15271;SDS011;7737;51.578;7.268;2023-07-13T14:23:44;4.38;;;2.75;;
15271;SDS011;7737;51.578;7.268;2023-07-13T14:26:12;3.63;;;2.85;;
15271;SDS011;7737;51.578;7.268;2023-07-13T14:28:41;4.68;;;2.88;;
15271;SDS011;7737;51.578;7.268;2023-07-13T14:31:09;4.60;;;2.90;;
15271;SDS011;7737;51.578;7.268;2023-07-13T14:33:36;4.70;;;2.83;;
15271;SDS011;7737;51.578;7.268;2023-07-13T14:36:03;3.30;;;2.50;;
15271;SDS011;7737;51.578;7.268;2023-07-13T14:38:39;4.20;;;2.78;;
15271;SDS011;7737;51.578;7.268;2023-07-13T14:41:08;3.35;;;2.63;;
15271;SDS011;7737;51.578;7.268;2023-07-13T14:43:34;5.03;;;3.30;;
15271;SDS011;7737;51.578;7.268;2023-07-13T14:46:01;3.95;;;2.85;;
15271;SDS011;7737;51.578;7.268;2023-07-13T14:48:29;4.38;;;2.85;;
15271;SDS011;7737;51.578;7.268;2023-07-13T14:50:56;4.45;;;2.80;;
15271;SDS011;7737;51.578;7.268;2023-07-13T14:53:26;2.97;;;2.50;;
15271;SDS011;7737;51.578;7.268;2023-07-13T14:55:55;3.92;;;3.05;;
15271;SDS011;7737;51.578;7.268;2023-07-13T14:58:23;3.90;;;2.70;;
15271;SDS011;7737;51.578;7.268;2023-07-13T15:00:50;4.90;;;2.80;;
15271;SDS011;7737;51.578;7.268;2023-07-13T15:03:21;4.72;;;2.60;;
15271;SDS011;7737;51.578;7.268;2023-07-13T15:05:51;4.82;;;3.10;;
15271;SDS011;7737;51.578;7.268;2023-07-13T15:08:18;4.03;;;2.50;;
15271;SDS011;7737;51.578;7.268;2023-07-13T15:10:45;4.40;;;2.60;;
15271;SDS011;7737;51.578;7.268;2023-07-13T15:13:15;6.00;;;2.63;;
15271;SDS011;7737;51.578;7.268;2023-07-13T15:15:45;3.17;;;2.38;;
15271;SDS011;7737;51.578;7.268;2023-07-13T15:18:13;3.15;;;1.98;;
15271;SDS011;7737;51.578;7.268;2023-07-13T15:20:43;2.45;;;1.67;;